Beaverville, Illinois
Current Conditions -  °F | °C
As of 12:35 AM on Friday 31 Oct 2014 (Local Time) from KIKK Reporting Station
Overcast Overcast  
Wind Chill: 39°   Ceiling: 6000
Heat Index: 42°   Visibility: 10mi
Dew Point: 39°   Wind: 6mph
Humidity: 88%   Direction: 270°W
Pressure: 30.06"   Gusts: NA
Location:  40.95°N, 87.65°W
Report Text: KIKK 310535Z AUTO 27005KT 10SM OVC060 06/04 A3006 RMK AO2 T00570039
Loading
Personal Weather Stations






























Interactive Weather Map
Tropical Storm Tracking
New forecast layout! Learn more

10-Day Weather Forecast

Advertisements
Track Severe Weather on mobile